createdAt,value
2023-01-21T00:01:17.612Z,8.30
2023-01-21T00:03:46.220Z,6.53
2023-01-21T00:06:15.125Z,7.13
2023-01-21T00:08:43.148Z,7.60
2023-01-21T00:11:15.325Z,8.40
2023-01-21T00:13:43.973Z,6.83
2023-01-21T00:16:13.086Z,7.40
2023-01-21T00:18:43.072Z,7.00
2023-01-21T00:21:11.218Z,8.63
2023-01-21T00:23:42.495Z,8.63
2023-01-21T00:26:12.344Z,7.83
2023-01-21T00:28:41.698Z,7.47
2023-01-21T00:31:09.974Z,8.20
2023-01-21T00:33:38.690Z,7.87
2023-01-21T00:36:10.240Z,7.70
2023-01-21T00:38:38.637Z,7.07
2023-01-21T00:41:08.312Z,9.30
2023-01-21T00:43:36.683Z,7.10
2023-01-21T00:46:05.034Z,7.83
2023-01-21T00:48:33.425Z,7.43
2023-01-21T00:51:01.704Z,7.20
2023-01-21T00:53:32.928Z,6.53
2023-01-21T00:56:01.476Z,6.83
2023-01-21T00:58:30.247Z,6.77
2023-01-21T01:01:02.785Z,8.20
2023-01-21T01:03:30.799Z,6.87
2023-01-21T01:06:04.243Z,8.10
2023-01-21T01:08:34.243Z,7.57
2023-01-21T01:11:02.604Z,7.43
2023-01-21T01:13:31.274Z,6.77
2023-01-21T01:16:00.258Z,7.27
2023-01-21T01:18:28.950Z,7.07
2023-01-21T01:20:57.469Z,7.33
2023-01-21T01:23:25.747Z,7.33
2023-01-21T01:25:59.419Z,7.13
2023-01-21T01:28:27.585Z,7.17
2023-01-21T01:30:56.264Z,5.70
2023-01-21T01:33:24.362Z,8.03
2023-01-21T01:35:52.790Z,7.40
2023-01-21T01:38:23.437Z,6.63
2023-01-21T01:40:53.212Z,6.27
2023-01-21T01:43:24.762Z,7.10
2023-01-21T01:45:53.425Z,4.97
2023-01-21T01:48:27.329Z,5.47
2023-01-21T01:50:56.638Z,5.83
2023-01-21T01:53:26.165Z,6.03
2023-01-21T01:55:54.640Z,5.90
2023-01-21T01:58:24.217Z,6.33
2023-01-21T02:00:52.538Z,7.93
2023-01-21T02:03:37.717Z,6.43
2023-01-21T02:06:06.069Z,5.90
2023-01-21T02:08:36.183Z,6.33
2023-01-21T02:11:07.704Z,6.70
2023-01-21T02:13:37.169Z,6.33
2023-01-21T02:16:26.378Z,5.77
2023-01-21T02:19:05.742Z,6.17
2023-01-21T02:21:55.165Z,6.10
2023-01-21T02:25:02.361Z,5.27
2023-01-21T02:27:43.553Z,5.33
2023-01-21T02:30:39.524Z,5.87
2023-01-21T02:33:47.797Z,4.80
2023-01-21T02:36:32.845Z,6.20
2023-01-21T02:39:10.535Z,5.13
2023-01-21T02:41:52.558Z,5.90
2023-01-21T02:44:28.809Z,5.03
2023-01-21T02:47:01.912Z,5.13
2023-01-21T02:49:36.191Z,4.93
2023-01-21T02:52:04.200Z,4.70
2023-01-21T02:54:51.043Z,5.40
2023-01-21T02:57:25.298Z,4.53
2023-01-21T02:59:56.533Z,4.33
2023-01-21T03:02:41.640Z,4.20
2023-01-21T03:05:14.509Z,4.83
2023-01-21T03:07:49.071Z,3.80
2023-01-21T03:10:24.290Z,3.90
2023-01-21T03:13:01.980Z,4.43
2023-01-21T03:15:53.725Z,4.83
2023-01-21T03:18:30.000Z,4.30
2023-01-21T03:21:02.933Z,4.20
2023-01-21T03:23:36.038Z,3.87
2023-01-21T03:26:07.451Z,4.00
2023-01-21T03:28:39.876Z,3.73
2023-01-21T03:31:12.708Z,3.77
2023-01-21T03:33:46.503Z,4.00
2023-01-21T03:36:24.719Z,3.60
2023-01-21T03:38:53.907Z,3.60
2023-01-21T03:41:26.137Z,3.27
2023-01-21T03:43:54.154Z,4.33
2023-01-21T03:46:26.013Z,3.57
2023-01-21T03:48:59.405Z,3.63
2023-01-21T03:51:34.798Z,3.40
2023-01-21T03:54:03.028Z,4.33
2023-01-21T03:56:31.087Z,3.20
2023-01-21T03:59:01.536Z,3.63
2023-01-21T04:01:29.518Z,3.23
2023-01-21T04:03:58.224Z,4.20
2023-01-21T04:06:28.253Z,3.30
2023-01-21T04:08:57.569Z,4.37
2023-01-21T04:11:25.536Z,3.70
2023-01-21T04:13:53.493Z,3.07
2023-01-21T04:16:21.599Z,3.20
2023-01-21T04:18:49.586Z,3.60
2023-01-21T04:21:17.565Z,3.60
2023-01-21T04:23:45.537Z,4.77
2023-01-21T04:26:16.409Z,3.47
2023-01-21T04:28:44.585Z,3.33
2023-01-21T04:31:12.570Z,3.50
2023-01-21T04:33:43.612Z,3.00
2023-01-21T04:36:11.592Z,3.20
2023-01-21T04:38:41.158Z,3.47
2023-01-21T04:41:09.152Z,3.30
2023-01-21T04:43:38.472Z,3.40
2023-01-21T04:46:06.765Z,3.17
2023-01-21T04:48:34.856Z,3.40
2023-01-21T04:51:02.827Z,3.80
2023-01-21T04:53:30.849Z,3.50
2023-01-21T04:55:58.942Z,3.63
2023-01-21T04:58:27.417Z,3.67
2023-01-21T05:00:57.197Z,2.93
2023-01-21T05:03:25.198Z,3.30
2023-01-21T05:05:53.149Z,3.10
2023-01-21T05:08:21.213Z,3.10
2023-01-21T05:10:49.170Z,3.40
2023-01-21T05:13:17.131Z,3.30
2023-01-21T05:15:46.177Z,3.23
2023-01-21T05:18:15.616Z,3.70
2023-01-21T05:20:43.586Z,3.37
2023-01-21T05:23:14.396Z,3.33
2023-01-21T05:25:42.377Z,3.27
2023-01-21T05:28:10.378Z,3.43
2023-01-21T05:30:40.660Z,3.13
2023-01-21T05:33:11.663Z,3.50
2023-01-21T05:35:41.155Z,3.40
2023-01-21T05:38:09.129Z,3.63
2023-01-21T05:40:37.129Z,3.83
2023-01-21T05:43:05.074Z,3.47
2023-01-21T05:45:33.057Z,4.00
2023-01-21T05:48:01.040Z,3.60
2023-01-21T05:50:29.053Z,3.60
2023-01-21T05:52:58.826Z,3.33
2023-01-21T05:55:26.832Z,3.77
2023-01-21T05:57:54.805Z,4.60
2023-01-21T06:00:23.391Z,3.63
2023-01-21T06:02:51.354Z,4.00
2023-01-21T06:05:19.319Z,3.80
2023-01-21T06:07:47.341Z,3.53
2023-01-21T06:10:17.781Z,4.10
2023-01-21T06:12:45.908Z,3.63
2023-01-21T06:15:14.878Z,4.03
2023-01-21T06:17:42.828Z,3.67
2023-01-21T06:20:12.156Z,3.30
2023-01-21T06:22:40.261Z,3.57
2023-01-21T06:25:08.660Z,3.60
2023-01-21T06:27:38.379Z,3.43
2023-01-21T06:30:07.705Z,3.67
2023-01-21T06:32:35.696Z,3.47
2023-01-21T06:35:04.171Z,3.27
2023-01-21T06:37:32.206Z,3.33
2023-01-21T06:40:00.230Z,3.50
2023-01-21T06:42:28.213Z,3.40
2023-01-21T06:44:57.559Z,3.50
2023-01-21T06:47:25.535Z,4.47
2023-01-21T06:49:53.505Z,3.50
2023-01-21T06:52:21.461Z,3.90
2023-01-21T06:54:49.495Z,3.43
2023-01-21T06:57:17.499Z,4.50
2023-01-21T06:59:45.645Z,3.63
2023-01-21T07:02:15.022Z,3.63
2023-01-21T07:04:43.108Z,4.00
2023-01-21T07:07:11.079Z,3.63
2023-01-21T07:09:39.059Z,3.90
2023-01-21T07:12:07.275Z,3.90
2023-01-21T07:14:35.268Z,3.93
2023-01-21T07:17:03.428Z,3.80
2023-01-21T07:19:32.740Z,3.77
2023-01-21T07:22:00.956Z,3.70
2023-01-21T07:24:29.096Z,3.43
2023-01-21T07:26:57.228Z,3.00
2023-01-21T07:29:25.635Z,3.53
2023-01-21T07:31:53.636Z,3.87
2023-01-21T07:34:21.635Z,3.50
2023-01-21T07:36:51.003Z,3.40
2023-01-21T07:39:19.005Z,3.67
2023-01-21T07:41:46.957Z,3.80
2023-01-21T07:44:14.962Z,3.30
2023-01-21T07:46:43.017Z,3.50
2023-01-21T07:49:12.923Z,3.43
2023-01-21T07:51:43.786Z,3.03
2023-01-21T07:54:16.065Z,2.87
2023-01-21T07:56:44.107Z,2.90
2023-01-21T07:59:13.342Z,3.20
2023-01-21T08:01:41.536Z,3.47
2023-01-21T08:04:11.366Z,2.73
2023-01-21T08:06:41.840Z,2.53
2023-01-21T08:09:10.355Z,2.90
2023-01-21T08:11:39.734Z,2.67
2023-01-21T08:14:07.820Z,4.10
2023-01-21T08:16:35.837Z,4.67
2023-01-21T08:19:03.832Z,4.73
2023-01-21T08:21:31.873Z,5.20
2023-01-21T08:23:59.890Z,5.00
2023-01-21T08:26:27.928Z,5.13
2023-01-21T08:28:57.510Z,5.90
2023-01-21T08:31:25.646Z,5.33
2023-01-21T08:33:53.709Z,5.80
2023-01-21T08:36:21.711Z,4.93
2023-01-21T08:38:53.387Z,7.17
2023-01-21T08:41:21.407Z,5.20
2023-01-21T08:43:49.457Z,5.50
2023-01-21T08:46:18.833Z,5.87
2023-01-21T08:48:46.769Z,6.07
2023-01-21T08:51:14.850Z,5.73
2023-01-21T08:53:42.888Z,5.80
2023-01-21T08:56:13.562Z,6.70
2023-01-21T08:58:41.719Z,5.87
2023-01-21T09:01:12.058Z,6.10
2023-01-21T09:03:41.568Z,6.23
2023-01-21T09:06:11.617Z,5.87
2023-01-21T09:08:40.398Z,5.73
2023-01-21T09:11:09.208Z,6.33
2023-01-21T09:13:39.154Z,6.50
2023-01-21T09:16:09.929Z,6.77
2023-01-21T09:18:40.714Z,8.03
2023-01-21T09:21:11.059Z,8.20
2023-01-21T09:23:40.093Z,7.53
2023-01-21T09:26:09.888Z,7.80
2023-01-21T09:28:39.987Z,7.90
2023-01-21T09:31:11.001Z,9.27
2023-01-21T09:33:40.951Z,8.77
2023-01-21T09:36:15.224Z,7.63
2023-01-21T09:38:43.957Z,8.13
2023-01-21T09:41:23.543Z,8.07
2023-01-21T09:43:58.216Z,7.87
2023-01-21T09:46:38.064Z,7.17
2023-01-21T09:49:17.746Z,7.00
2023-01-21T09:52:09.279Z,7.80
2023-01-21T09:54:39.456Z,8.13
2023-01-21T09:57:41.800Z,8.93
2023-01-21T10:00:25.929Z,9.00
2023-01-21T10:03:01.408Z,10.23
2023-01-21T10:05:47.793Z,10.63
2023-01-21T10:08:25.874Z,9.33
2023-01-21T10:11:01.215Z,11.37
2023-01-21T10:13:52.261Z,12.73
2023-01-21T10:16:27.142Z,12.13
2023-01-21T10:18:57.705Z,11.27
2023-01-21T10:21:32.727Z,9.67
2023-01-21T10:24:05.605Z,12.70
2023-01-21T10:26:35.975Z,10.40
2023-01-21T10:29:04.693Z,9.73
2023-01-21T10:31:38.948Z,9.30
2023-01-21T10:34:13.465Z,9.90
2023-01-21T10:37:00.567Z,9.93
2023-01-21T10:39:41.672Z,8.93
2023-01-21T10:42:37.666Z,9.77
2023-01-21T10:45:13.704Z,10.93
2023-01-21T10:47:51.644Z,10.30
2023-01-21T10:50:31.979Z,10.70
2023-01-21T10:53:06.701Z,11.30
2023-01-21T10:55:47.450Z,10.33
2023-01-21T10:58:25.484Z,10.77
2023-01-21T11:00:55.187Z,10.17
2023-01-21T11:03:32.575Z,11.63
2023-01-21T11:06:02.681Z,13.27
2023-01-21T11:08:32.094Z,11.07
2023-01-21T11:11:02.688Z,11.17
2023-01-21T11:13:30.822Z,10.67
2023-01-21T11:16:00.202Z,12.30
2023-01-21T11:18:31.801Z,12.87
2023-01-21T11:21:03.072Z,12.27
2023-01-21T11:23:32.723Z,12.43
2023-01-21T11:26:08.774Z,12.73
2023-01-21T11:28:38.238Z,18.63
2023-01-21T11:31:13.624Z,16.63
2023-01-21T11:33:43.502Z,20.90
2023-01-21T11:36:14.372Z,16.87
2023-01-21T11:38:42.540Z,21.67
2023-01-21T11:41:22.619Z,19.07
2023-01-21T11:43:53.181Z,20.37
2023-01-21T11:46:36.311Z,19.73
2023-01-21T11:49:23.292Z,20.07
2023-01-21T11:51:51.964Z,16.97
2023-01-21T11:54:21.947Z,15.03
2023-01-21T11:56:57.561Z,14.97
2023-01-21T11:59:32.235Z,12.70
2023-01-21T12:02:08.379Z,12.00
2023-01-21T12:04:37.540Z,14.63
2023-01-21T12:07:06.447Z,14.23
2023-01-21T12:09:34.657Z,14.97
2023-01-21T12:12:17.857Z,13.30
2023-01-21T12:14:53.050Z,13.33
2023-01-21T12:17:30.758Z,11.57
2023-01-21T12:20:12.730Z,10.37
2023-01-21T12:22:54.907Z,10.33
2023-01-21T12:25:28.997Z,11.10
2023-01-21T12:28:12.915Z,10.57
2023-01-21T12:30:52.122Z,10.73
2023-01-21T12:33:36.720Z,12.07
2023-01-21T12:36:12.270Z,11.77
2023-01-21T12:38:43.391Z,11.87
2023-01-21T12:41:17.582Z,12.13
2023-01-21T12:43:49.248Z,14.17
2023-01-21T12:46:21.872Z,12.67
2023-01-21T12:48:56.284Z,13.60
2023-01-21T12:51:28.782Z,13.27
2023-01-21T12:54:05.282Z,15.10
2023-01-21T12:56:39.841Z,15.97
2023-01-21T12:59:18.124Z,16.37
2023-01-21T13:01:53.460Z,20.23
2023-01-21T13:04:44.288Z,19.40
2023-01-21T13:07:24.170Z,18.30
2023-01-21T13:09:57.188Z,21.73
2023-01-21T13:12:29.592Z,21.00
2023-01-21T13:15:03.419Z,21.83
2023-01-21T13:17:35.341Z,23.13
2023-01-21T13:20:14.455Z,20.63
2023-01-21T13:22:48.983Z,21.97
2023-01-21T13:25:26.406Z,21.37
2023-01-21T13:28:01.755Z,25.83
2023-01-21T13:30:40.237Z,25.47
2023-01-21T13:33:41.280Z,23.37
2023-01-21T13:36:24.591Z,22.53
2023-01-21T13:39:02.345Z,26.20
2023-01-21T13:41:43.177Z,24.30
2023-01-21T13:44:34.138Z,25.47
2023-01-21T13:47:14.021Z,25.53
2023-01-21T13:50:06.111Z,23.93
2023-01-21T13:52:41.542Z,27.00
2023-01-21T13:55:26.421Z,25.43
2023-01-21T13:58:02.912Z,25.10
2023-01-21T14:00:34.715Z,24.23
2023-01-21T14:03:16.831Z,22.23
2023-01-21T14:05:50.516Z,26.10
2023-01-21T14:08:25.675Z,23.03
2023-01-21T14:10:57.644Z,27.80
2023-01-21T14:14:10.955Z,26.77
2023-01-21T14:17:05.824Z,27.17
2023-01-21T14:20:03.476Z,23.73
2023-01-21T14:22:54.941Z,25.23
2023-01-21T14:25:35.171Z,24.07
2023-01-21T14:28:13.746Z,30.80
2023-01-21T14:30:48.351Z,28.47
2023-01-21T14:33:21.766Z,24.33
2023-01-21T14:36:03.739Z,26.07
2023-01-21T14:38:41.789Z,27.17
2023-01-21T14:41:13.165Z,30.17
2023-01-21T14:43:49.489Z,30.60
2023-01-21T14:46:33.735Z,30.73
2023-01-21T14:49:10.625Z,29.67
2023-01-21T14:51:45.615Z,32.90
2023-01-21T14:54:18.187Z,29.80
2023-01-21T14:57:01.758Z,32.20
2023-01-21T14:59:38.749Z,30.67
2023-01-21T15:02:27.388Z,35.67
2023-01-21T15:04:57.733Z,38.10
2023-01-21T15:07:32.060Z,38.40
2023-01-21T15:10:03.758Z,41.87
2023-01-21T15:12:36.673Z,46.63
2023-01-21T15:15:29.308Z,43.67
2023-01-21T15:18:25.482Z,38.47
2023-01-21T15:20:57.996Z,35.47
2023-01-21T15:23:42.133Z,36.40
2023-01-21T15:26:33.135Z,38.07
2023-01-21T15:29:34.852Z,36.60
2023-01-21T15:32:28.611Z,34.43
2023-01-21T15:34:59.590Z,42.93
2023-01-21T15:37:30.072Z,80.43
2023-01-21T15:40:10.975Z,62.50
2023-01-21T15:42:51.955Z,50.63
2023-01-21T15:45:33.981Z,48.53
2023-01-21T15:48:42.963Z,46.77
2023-01-21T15:51:23.659Z,41.13
2023-01-21T15:54:04.890Z,40.27
2023-01-21T15:56:56.824Z,41.03
2023-01-21T15:59:42.654Z,42.30
2023-01-21T16:02:21.647Z,41.67
2023-01-21T16:05:02.532Z,39.73
2023-01-21T16:07:39.961Z,40.43
2023-01-21T16:10:21.191Z,38.53
2023-01-21T16:13:01.201Z,39.43
2023-01-21T16:15:39.109Z,42.20
2023-01-21T16:18:17.576Z,42.10
2023-01-21T16:20:50.473Z,46.80
2023-01-21T16:23:21.584Z,48.20
2023-01-21T16:25:52.751Z,53.57
2023-01-21T16:28:22.499Z,45.77
2023-01-21T16:30:55.695Z,46.63
2023-01-21T16:33:24.076Z,49.17
2023-01-21T16:35:56.128Z,48.53
2023-01-21T16:38:26.844Z,44.13
2023-01-21T16:41:27.859Z,42.47
2023-01-21T16:44:00.163Z,45.87
2023-01-21T16:46:34.549Z,44.17
2023-01-21T16:49:04.773Z,40.97
2023-01-21T16:51:35.514Z,41.97
2023-01-21T16:54:28.433Z,41.37
2023-01-21T16:57:02.060Z,44.40
2023-01-21T16:59:39.366Z,51.40
2023-01-21T17:02:19.582Z,48.03
2023-01-21T17:04:47.953Z,48.37
2023-01-21T17:07:18.734Z,44.77
2023-01-21T17:09:47.142Z,46.87
2023-01-21T17:12:26.659Z,56.17
2023-01-21T17:15:00.339Z,56.37
2023-01-21T17:17:32.728Z,57.33
2023-01-21T17:20:01.397Z,58.00
2023-01-21T17:22:34.647Z,57.27
2023-01-21T17:25:09.425Z,54.20
2023-01-21T17:27:38.958Z,55.70
2023-01-21T17:30:26.551Z,58.03
2023-01-21T17:32:56.227Z,57.80
2023-01-21T17:35:25.544Z,54.90
2023-01-21T17:37:55.601Z,57.17
2023-01-21T17:40:30.023Z,56.57
2023-01-21T17:42:59.143Z,57.40
2023-01-21T17:45:31.957Z,58.87
2023-01-21T17:48:10.350Z,54.53
2023-01-21T17:50:46.984Z,55.90
2023-01-21T17:53:22.855Z,50.73
2023-01-21T17:56:01.937Z,51.97
2023-01-21T17:58:48.262Z,51.87
2023-01-21T18:01:21.753Z,52.83
2023-01-21T18:03:49.761Z,57.10
2023-01-21T18:06:21.041Z,55.00
2023-01-21T18:08:50.472Z,54.57
2023-01-21T18:11:19.327Z,52.87
2023-01-21T18:13:47.470Z,50.10
2023-01-21T18:16:16.885Z,52.90
2023-01-21T18:18:45.233Z,57.03
2023-01-21T18:21:20.900Z,62.97
2023-01-21T18:23:49.637Z,65.03
2023-01-21T18:26:26.303Z,67.90
2023-01-21T18:28:56.428Z,72.73
2023-01-21T18:31:26.130Z,69.60
2023-01-21T18:33:54.247Z,71.93
2023-01-21T18:36:26.084Z,69.07
2023-01-21T18:38:54.050Z,64.57
2023-01-21T18:41:22.085Z,64.80
2023-01-21T18:43:50.038Z,56.97
2023-01-21T18:46:19.724Z,59.17
2023-01-21T18:48:49.171Z,53.60
2023-01-21T18:51:17.257Z,48.63
2023-01-21T18:53:45.294Z,45.47
2023-01-21T18:56:15.447Z,43.00
2023-01-21T18:58:43.599Z,43.90
2023-01-21T19:01:22.985Z,44.23
2023-01-21T19:03:59.726Z,46.37
2023-01-21T19:06:27.769Z,49.87
2023-01-21T19:08:55.998Z,55.60
2023-01-21T19:11:24.128Z,59.13
2023-01-21T19:13:55.587Z,65.13
2023-01-21T19:16:24.048Z,68.03
2023-01-21T19:18:53.453Z,66.10
2023-01-21T19:21:21.703Z,68.67
2023-01-21T19:23:49.735Z,62.37
2023-01-21T19:26:18.149Z,64.30
2023-01-21T19:28:46.290Z,64.70
2023-01-21T19:31:14.412Z,64.77
2023-01-21T19:33:45.455Z,61.87
2023-01-21T19:36:20.214Z,62.30
2023-01-21T19:38:54.140Z,64.97
2023-01-21T19:41:25.801Z,59.33
2023-01-21T19:43:53.798Z,61.83
2023-01-21T19:46:23.919Z,61.87
2023-01-21T19:48:53.614Z,63.23
2023-01-21T19:51:23.175Z,60.23
2023-01-21T19:53:51.198Z,65.13
2023-01-21T19:56:23.881Z,70.63
2023-01-21T19:58:52.197Z,74.00
2023-01-21T20:01:20.375Z,71.57
2023-01-21T20:03:59.843Z,76.03
2023-01-21T20:06:35.304Z,77.77
2023-01-21T20:09:03.571Z,82.50
2023-01-21T20:11:35.429Z,76.97
2023-01-21T20:14:05.160Z,72.07
2023-01-21T20:16:33.912Z,76.50
2023-01-21T20:19:03.824Z,78.47
2023-01-21T20:21:33.559Z,73.17
2023-01-21T20:24:02.660Z,75.63
2023-01-21T20:26:30.800Z,72.60
2023-01-21T20:29:01.385Z,72.03
2023-01-21T20:31:30.246Z,72.37
2023-01-21T20:33:58.244Z,70.17
2023-01-21T20:36:27.529Z,67.70
2023-01-21T20:38:58.105Z,71.70
2023-01-21T20:41:29.018Z,66.67
2023-01-21T20:43:57.318Z,74.60
2023-01-21T20:46:29.559Z,68.93
2023-01-21T20:48:58.462Z,70.17
2023-01-21T20:51:28.999Z,67.90
2023-01-21T20:54:02.274Z,68.23
2023-01-21T20:56:32.865Z,66.10
2023-01-21T20:59:03.393Z,70.00
2023-01-21T21:01:34.559Z,66.97
2023-01-21T21:04:02.938Z,63.53
2023-01-21T21:06:31.136Z,63.10
2023-01-21T21:09:03.328Z,62.17
2023-01-21T21:11:36.951Z,66.57
2023-01-21T21:14:05.100Z,64.50
2023-01-21T21:16:35.432Z,66.10
2023-01-21T21:19:03.991Z,67.53
2023-01-21T21:21:32.023Z,62.40
2023-01-21T21:24:00.423Z,71.70
2023-01-21T21:26:30.155Z,66.13
2023-01-21T21:28:58.583Z,63.23
2023-01-21T21:31:33.241Z,64.00
2023-01-21T21:34:03.547Z,70.47
2023-01-21T21:36:31.574Z,68.43
2023-01-21T21:39:00.226Z,66.77
2023-01-21T21:41:47.047Z,70.20
2023-01-21T21:44:15.154Z,77.03
2023-01-21T21:47:01.061Z,70.63
2023-01-21T21:49:30.903Z,70.60
2023-01-21T21:52:00.980Z,65.10
2023-01-21T21:54:28.985Z,69.80
2023-01-21T21:56:58.682Z,66.53
2023-01-21T21:59:26.711Z,69.40
2023-01-21T22:02:00.656Z,71.70
2023-01-21T22:04:28.745Z,73.10
2023-01-21T22:06:56.740Z,71.93
2023-01-21T22:09:24.744Z,74.57
2023-01-21T22:11:52.767Z,72.97
2023-01-21T22:14:25.173Z,69.53
2023-01-21T22:16:53.967Z,66.13
2023-01-21T22:19:22.001Z,71.00
2023-01-21T22:21:49.996Z,65.27
2023-01-21T22:24:18.024Z,67.90
2023-01-21T22:26:46.014Z,63.80
2023-01-21T22:29:14.136Z,70.40
2023-01-21T22:31:43.619Z,70.40
2023-01-21T22:34:13.580Z,68.07
2023-01-21T22:36:42.099Z,63.93
2023-01-21T22:39:10.308Z,67.77
2023-01-21T22:41:38.282Z,61.37
2023-01-21T22:44:06.350Z,65.10
2023-01-21T22:46:37.115Z,66.50
2023-01-21T22:49:06.510Z,63.57
2023-01-21T22:51:34.545Z,59.00
2023-01-21T22:54:02.584Z,58.83
2023-01-21T22:56:50.521Z,60.60
2023-01-21T22:59:23.402Z,60.20
2023-01-21T23:01:51.559Z,59.93
2023-01-21T23:04:23.794Z,55.47
2023-01-21T23:06:54.815Z,57.10
2023-01-21T23:09:22.895Z,58.17
2023-01-21T23:11:55.308Z,51.87
2023-01-21T23:14:23.322Z,51.20
2023-01-21T23:16:53.525Z,53.37
2023-01-21T23:19:22.868Z,47.30
2023-01-21T23:21:50.841Z,47.80
2023-01-21T23:24:19.219Z,44.70
2023-01-21T23:26:47.197Z,44.50
2023-01-21T23:29:15.179Z,45.57
2023-01-21T23:31:43.535Z,42.87
2023-01-21T23:34:15.020Z,42.20
2023-01-21T23:36:44.399Z,39.97
2023-01-21T23:39:13.754Z,36.23
2023-01-21T23:41:44.134Z,37.37
2023-01-21T23:44:12.178Z,38.33
2023-01-21T23:46:40.175Z,37.80
2023-01-21T23:49:08.287Z,38.00
2023-01-21T23:51:36.597Z,42.10
2023-01-21T23:54:06.326Z,39.50
2023-01-21T23:56:34.329Z,37.33
2023-01-21T23:59:02.299Z,39.80
